Time;durP1;ratioP1;P1;durP2;ratioP2;P2;SDS_P1;SDS_P2;PMS_P1;PMS_P2;Temp;Humidity;BMP_temperature;BMP_pressure;BME280_temperature;BME280_humidity;BME280_pressure;Samples;Min_cycle;Max_cycle;Signal;HPM_P1;HPM_P2
2022/06/16 07:46:49;;;;;;;103.90;6.35;;;;;;;19.71;42.77;101657.72;5109424;27;20738;-57
2022/06/16 07:49:22;;;;;;;14.20;4.13;;;;;;;19.20;43.23;101665.88;5104636;28;20032;-56
2022/06/16 07:51:50;;;;;;;11.50;3.50;;;;;;;18.77;43.72;101666.56;5104244;28;20131;-58
2022/06/16 07:54:18;;;;;;;11.93;3.78;;;;;;;18.54;43.33;101672.00;5101144;28;20097;-58
2022/06/16 07:57:00;;;;;;;11.13;3.35;;;;;;;18.53;44.95;101666.81;5090812;28;20060;-59
2022/06/16 07:59:26;;;;;;;13.50;3.42;;;;;;;18.52;45.68;101670.50;5092027;28;20040;-57
2022/06/16 08:01:54;;;;;;;12.65;3.67;;;;;;;18.41;44.84;101674.50;5091677;28;20036;-57
2022/06/16 08:04:20;;;;;;;8.68;3.25;;;;;;;18.41;45.52;101666.44;5094520;28;20047;-57
2022/06/16 08:06:47;;;;;;;7.68;3.20;;;;;;;18.49;46.43;101670.91;5110958;28;20066;-57
2022/06/16 08:09:14;;;;;;;14.13;3.70;;;;;;;18.62;44.21;101671.09;5110863;28;20048;-57
2022/06/16 08:12:12;;;;;;;11.60;3.50;;;;;;;18.59;44.34;101677.69;5110933;28;20051;-58
2022/06/16 08:14:27;;;;;;;10.88;3.72;;;;;;;18.70;44.49;101672.84;5106929;28;20066;-59
2022/06/16 08:16:55;;;;;;;10.68;3.50;;;;;;;18.65;43.76;101676.09;5090290;28;20109;-59
2022/06/16 08:19:22;;;;;;;12.27;3.83;;;;;;;18.74;44.61;101682.22;5089251;28;20127;-57
2022/06/16 08:21:49;;;;;;;16.50;3.58;;;;;;;18.85;44.86;101680.97;5099201;28;20048;-57
2022/06/16 08:24:17;;;;;;;15.20;3.60;;;;;;;18.91;45.35;101686.41;5103289;28;20127;-57
2022/06/16 08:26:44;;;;;;;12.00;3.58;;;;;;;18.95;45.31;101692.25;5110088;28;20497;-58
2022/06/16 08:29:14;;;;;;;10.57;3.30;;;;;;;18.93;44.19;101689.72;5104879;28;20486;-59
2022/06/16 08:31:40;;;;;;;11.73;3.53;;;;;;;18.95;44.16;101693.06;5109718;28;20055;-59
2022/06/16 08:34:07;;;;;;;10.57;3.30;;;;;;;18.94;42.15;101710.25;5107317;28;20047;-58
2022/06/16 08:36:35;;;;;;;10.68;3.17;;;;;;;18.92;41.48;101709.59;5107043;28;20093;-57
2022/06/16 08:39:05;;;;;;;9.57;2.92;;;;;;;19.00;41.61;101705.97;5099634;28;20035;-63
2022/06/16 08:41:51;;;;;;;9.73;3.05;;;;;;;19.00;41.51;101705.97;5109887;28;20405;-63
2022/06/16 08:44:28;;;;;;;12.13;3.28;;;;;;;19.12;42.20;101711.72;5108912;28;20078;-63
2022/06/16 08:47:19;;;;;;;11.65;4.28;;;;;;;19.20;41.92;101708.09;5109817;28;20379;-63
2022/06/16 08:50:02;;;;;;;10.50;3.20;;;;;;;19.23;42.25;101707.69;5110131;28;20485;-63
2022/06/16 08:52:50;;;;;;;12.75;3.17;;;;;;;19.36;42.71;101705.19;5109879;28;20044;-63
2022/06/16 08:55:29;;;;;;;12.77;3.78;;;;;;;19.52;44.30;101713.03;5109805;28;20040;-64
2022/06/16 08:58:16;;;;;;;10.55;3.00;;;;;;;19.66;42.60;101708.59;5097707;28;20040;-64
2022/06/16 09:00:46;;;;;;;11.25;2.95;;;;;;;19.77;42.16;101712.69;5080158;28;20055;-64
2022/06/16 09:03:27;;;;;;;13.80;3.50;;;;;;;19.89;41.65;101702.25;5094969;28;20078;-64
2022/06/16 09:06:01;;;;;;;10.77;3.20;;;;;;;19.98;41.59;101701.09;5096055;28;20036;-64
2022/06/16 09:08:52;;;;;;;11.43;3.55;;;;;;;19.80;39.41;101708.78;5096300;28;20289;-64
2022/06/16 09:11:48;;;;;;;10.75;3.13;;;;;;;19.88;40.24;101704.13;5096080;28;20431;-64
2022/06/16 09:15:19;;;;;;;7.55;2.95;;;;;;;19.98;39.62;101711.03;5096216;28;20043;-64
2022/06/16 09:17:31;;;;;;;10.20;3.00;;;;;;;20.17;40.11;101704.16;5095764;28;20044;-64
2022/06/16 09:20:22;;;;;;;10.40;3.40;;;;;;;20.38;39.69;101714.91;5094779;28;20393;-65
2022/06/16 09:23:32;;;;;;;10.32;3.78;;;;;;;20.33;39.56;101722.72;5094739;28;20087;-63
2022/06/16 09:26:25;;;;;;;11.63;3.65;;;;;;;20.50;39.61;101723.28;5094355;28;20055;-64
2022/06/16 09:29:14;;;;;;;11.52;3.10;;;;;;;20.60;39.81;101729.16;5072909;28;20067;-64
2022/06/16 09:31:47;;;;;;;10.65;3.45;;;;;;;20.60;39.06;101722.94;5084101;28;20071;-64
2022/06/16 09:34:25;;;;;;;11.50;3.20;;;;;;;20.74;39.61;101735.53;5053679;28;20071;-64
2022/06/16 09:36:58;;;;;;;8.95;2.78;;;;;;;20.85;39.32;101743.06;5039047;28;20057;-64
2022/06/16 09:39:34;;;;;;;10.05;3.40;;;;;;;20.83;39.23;101749.66;5075619;28;20048;-63
2022/06/16 09:42:39;;;;;;;10.30;2.90;;;;;;;20.90;38.92;101754.06;5076479;28;20492;-62
2022/06/16 09:48:15;;;;;;;13.18;3.05;;;;;;;20.98;39.21;101761.19;5082288;28;20184;-64
2022/06/16 09:51:22;;;;;;;11.57;2.70;;;;;;;21.26;38.38;101765.69;5071655;28;20398;-63
2022/06/16 09:53:56;;;;;;;11.15;2.67;;;;;;;21.37;37.64;101766.97;5090805;28;20067;-64
2022/06/16 09:59:08;;;;;;;13.68;2.58;;;;;;;21.26;36.42;101768.38;5109531;27;20445;-58
2022/06/16 10:01:43;;;;;;;9.70;2.85;;;;;;;21.36;37.40;101766.16;5111368;28;20086;-59
2022/06/16 10:04:09;;;;;;;9.40;2.50;;;;;;;21.74;37.16;101768.41;5096268;28;20048;-59
2022/06/16 10:07:07;;;;;;;8.98;2.38;;;;;;;21.87;35.62;101761.38;5089717;28;20040;-58
2022/06/16 10:09:51;;;;;;;11.80;2.67;;;;;;;22.13;35.93;101768.69;5068673;28;20400;-57
2022/06/16 10:15:55;;;;;;;10.25;2.60;;;;;;;22.21;35.69;101781.97;5171840;27;20399;-58
2022/06/16 10:18:22;;;;;;;10.50;2.50;;;;;;;22.41;35.47;101788.28;5144385;27;20043;-58
2022/06/16 10:20:49;;;;;;;10.00;2.88;;;;;;;22.33;34.41;101799.28;5143994;27;20035;-58
2022/06/16 10:23:22;;;;;;;11.25;2.70;;;;;;;22.24;34.66;101801.31;5145724;27;20515;-57
2022/06/16 10:25:54;;;;;;;9.63;2.30;;;;;;;22.28;35.50;101795.53;5148635;27;20125;-58
2022/06/16 10:28:31;;;;;;;11.07;2.60;;;;;;;21.83;33.90;101817.66;5143579;27;20043;-58
2022/06/16 10:31:00;;;;;;;8.10;2.33;;;;;;;22.06;34.42;101806.47;5133528;27;20100;-57
2022/06/16 10:33:31;;;;;;;9.48;2.60;;;;;;;22.29;34.86;101794.50;5132809;27;20092;-58
2022/06/16 10:36:12;;;;;;;7.90;2.50;;;;;;;22.23;34.09;101796.97;5141998;27;20043;-57
2022/06/16 10:38:43;;;;;;;10.18;2.47;;;;;;;22.51;35.25;101798.66;5135552;27;20031;-57
2022/06/16 10:41:32;;;;;;;10.45;2.25;;;;;;;22.35;32.57;101794.50;5147315;27;20615;-58
2022/06/16 10:44:02;;;;;;;9.48;2.75;;;;;;;22.53;34.17;101793.88;5135973;27;20039;-57
2022/06/16 10:46:32;;;;;;;12.48;2.50;;;;;;;22.83;34.67;101801.56;5130470;27;20568;-58
2022/06/16 10:49:04;;;;;;;10.50;2.58;;;;;;;22.86;33.91;101794.91;5129665;27;20100;-58
2022/06/16 10:51:36;;;;;;;12.95;3.25;;;;;;;22.89;33.53;101792.59;5133350;27;20486;-58
2022/06/16 10:54:31;;;;;;;9.55;2.70;;;;;;;23.16;32.88;101796.13;5141335;27;20034;-58
2022/06/16 10:57:22;;;;;;;10.02;2.40;;;;;;;23.29;33.56;101789.84;5130485;27;20047;-58
2022/06/16 10:59:56;;;;;;;8.43;2.20;;;;;;;22.82;32.34;101780.97;5137588;27;20122;-59
2022/06/16 11:02:27;;;;;;;9.50;2.80;;;;;;;23.33;34.19;101774.81;5148271;27;20400;-59
2022/06/16 11:05:01;;;;;;;8.63;2.42;;;;;;;23.14;32.54;101781.97;5129602;27;20050;-59
2022/06/16 11:07:36;;;;;;;8.82;2.50;;;;;;;23.15;33.58;101774.69;5148425;27;20141;-58
2022/06/16 11:10:08;;;;;;;13.25;2.90;;;;;;;22.98;32.27;101764.28;5145451;27;20050;-59
2022/06/16 11:12:38;;;;;;;10.80;3.05;;;;;;;22.86;32.71;101760.56;5116321;27;20135;-58
2022/06/16 11:15:22;;;;;;;9.57;2.80;;;;;;;22.77;32.74;101765.34;5140213;27;20130;-59
2022/06/16 11:17:54;;;;;;;55.70;4.03;;;;;;;22.71;33.99;101766.22;5135648;27;20049;-58
2022/06/16 11:23:25;;;;;;;43.38;4.45;;;;;;;23.22;33.72;101777.38;5073638;28;20416;-58
2022/06/16 11:26:06;;;;;;;51.17;3.67;;;;;;;23.59;33.98;101775.75;5068245;28;20048;-58
2022/06/16 11:28:42;;;;;;;15.77;3.22;;;;;;;23.61;32.76;101759.28;5063500;28;20045;-58
2022/06/16 11:31:15;;;;;;;29.05;8.63;;;;;;;23.46;33.52;101782.06;5072970;28;20086;-58
2022/06/16 11:34:19;;;;;;;22.05;3.35;;;;;;;23.56;33.29;101779.72;5062448;28;20124;-58
2022/06/16 11:40:07;;;;;;;14.23;2.95;;;;;;;23.77;32.78;101786.69;5115192;27;20125;-62
2022/06/16 11:43:07;;;;;;;97.80;6.70;;;;;;;23.75;32.29;101785.25;5052622;28;20127;-61
2022/06/16 11:45:45;;;;;;;593.50;25.95;;;;;;;23.99;33.00;101770.13;5106791;28;20156;-62
2022/06/16 11:51:32;;;;;;;19.80;3.72;;;;;;;24.51;33.38;101751.78;5127073;27;20129;-63
2022/06/16 11:54:40;;;;;;;22.73;4.90;;;;;;;24.67;32.66;101760.47;5092874;28;20051;-63
2022/06/16 11:57:32;;;;;;;16.25;3.80;;;;;;;24.70;31.86;101762.72;5055802;28;20047;-62
2022/06/16 12:00:24;;;;;;;10.85;3.42;;;;;;;24.44;31.87;101770.00;5112349;28;20382;-62
2022/06/16 12:03:15;;;;;;;13.05;3.33;;;;;;;24.58;32.22;101778.91;5072266;28;20040;-62
2022/06/16 12:06:21;;;;;;;11.20;3.47;;;;;;;24.60;30.68;101784.09;5088631;28;20382;-62
2022/06/16 12:09:01;;;;;;;10.27;3.13;;;;;;;24.26;31.01;101778.91;5100231;28;20405;-62
2022/06/16 12:11:41;;;;;;;12.52;5.05;;;;;;;24.57;32.81;101779.94;5100398;28;20127;-62
2022/06/16 12:14:54;;;;;;;24.95;9.88;;;;;;;24.72;31.58;101776.88;5102806;28;20040;-62
2022/06/16 12:17:28;;;;;;;34.17;14.48;;;;;;;24.65;31.35;101767.97;5092173;28;20127;-62
2022/06/16 12:20:14;;;;;;;16.45;6.72;;;;;;;24.64;32.09;101767.16;5089899;28;20188;-70
2022/06/16 12:23:18;;;;;;;15.68;6.28;;;;;;;24.61;31.14;101754.03;5078434;28;20063;-70
2022/06/16 12:26:11;;;;;;;12.23;5.25;;;;;;;24.69;32.16;101756.47;5104098;28;20044;-69
2022/06/16 12:29:09;;;;;;;26.92;14.23;;;;;;;24.90;31.97;101754.38;5075727;28;20064;-70
2022/06/16 12:32:02;;;;;;;11.70;4.40;;;;;;;25.00;33.08;101751.97;5105393;28;20528;-70
2022/06/16 12:37:48;;;;;;;12.38;5.15;;;;;;;25.28;32.13;101747.91;5165436;27;20771;-71
2022/06/16 12:40:25;;;;;;;10.73;3.95;;;;;;;24.99;31.12;101749.47;5148989;27;20088;-68
2022/06/16 12:42:59;;;;;;;16.63;3.80;;;;;;;25.04;30.43;101750.44;5140667;27;20050;-67
2022/06/16 12:45:35;;;;;;;9.45;3.45;;;;;;;24.84;30.38;101761.53;5151533;27;20530;-68
2022/06/16 12:48:07;;;;;;;16.35;5.72;;;;;;;25.09;31.64;101755.22;5129347;27;20500;-68
2022/06/16 12:50:39;;;;;;;11.95;4.63;;;;;;;25.19;31.17;101754.66;5146210;27;20051;-68
2022/06/16 12:53:18;;;;;;;13.20;4.30;;;;;;;25.47;31.29;101757.69;5149284;27;20046;-68
2022/06/16 12:55:53;;;;;;;27.08;12.02;;;;;;;25.53;29.98;101768.72;5147597;27;20047;-68
2022/06/16 12:58:28;;;;;;;19.15;9.27;;;;;;;25.53;29.30;101763.28;5148459;27;20039;-69
2022/06/16 13:01:02;;;;;;;11.65;3.70;;;;;;;25.78;29.58;101765.84;5146406;27;20447;-70
2022/06/16 13:03:55;;;;;;;26.50;11.57;;;;;;;26.11;30.07;101756.41;5150129;27;20070;-68
2022/06/16 13:06:23;;;;;;;26.83;13.38;;;;;;;26.31;31.26;101762.34;5148581;27;20047;-69
2022/06/16 13:08:56;;;;;;;30.23;14.00;;;;;;;26.12;29.41;101774.34;5131014;27;20484;-68
2022/06/16 13:11:37;;;;;;;21.60;9.45;;;;;;;25.94;29.23;101767.94;5150252;27;20043;-68
2022/06/16 13:14:21;;;;;;;19.45;8.25;;;;;;;25.73;29.15;101763.00;5150860;27;20088;-68
2022/06/16 13:16:49;;;;;;;14.70;6.80;;;;;;;25.91;30.48;101768.38;5131210;27;20031;-69
2022/06/16 13:19:24;;;;;;;14.82;4.63;;;;;;;25.83;29.45;101776.84;5146854;27;20100;-69
2022/06/16 13:21:56;;;;;;;14.70;5.55;;;;;;;25.70;29.24;101777.03;5144938;27;20043;-68
2022/06/16 13:24:36;;;;;;;240.90;139.77;;;;;;;25.92;29.91;101782.78;5143796;27;20038;-64
2022/06/16 13:27:24;;;;;;;12.95;3.55;;;;;;;26.02;28.95;101791.25;5128189;27;20429;-64
2022/06/16 13:32:55;;;;;;;17.48;7.07;;;;;;;26.14;29.32;101786.69;5144006;27;20204;-68
2022/06/16 13:40:44;;;;;;;13.13;4.97;;;;;;;26.19;30.22;101789.50;5123535;27;20129;-67
2022/06/16 13:43:19;;;;;;;13.15;5.03;;;;;;;26.38;29.99;101790.25;5109414;28;20035;-67
2022/06/16 13:45:54;;;;;;;14.73;5.97;;;;;;;26.37;29.46;101801.38;5109014;28;20046;-67
2022/06/16 13:48:49;;;;;;;17.77;6.10;;;;;;;26.66;29.09;101794.22;5083531;28;20092;-67
2022/06/16 13:51:42;;;;;;;13.88;5.25;;;;;;;26.49;28.35;101804.13;5111216;28;20063;-67
2022/06/16 13:54:13;;;;;;;13.33;3.57;;;;;;;26.28;29.21;101808.22;5108033;28;20563;-68
2022/06/16 13:56:44;;;;;;;11.95;4.75;;;;;;;26.44;29.81;101811.06;5108680;28;20047;-67
2022/06/16 13:59:29;;;;;;;16.13;6.18;;;;;;;26.45;29.79;101806.47;5087671;28;20040;-67
2022/06/16 14:02:12;;;;;;;13.63;4.07;;;;;;;26.67;28.76;101801.31;5110044;28;20062;-67
2022/06/16 14:05:00;;;;;;;14.88;4.95;;;;;;;26.69;29.61;101798.38;5102661;28;20051;-67
2022/06/16 14:07:33;;;;;;;22.42;9.07;;;;;;;26.78;29.37;101797.75;5104286;28;20059;-67
2022/06/16 14:10:08;;;;;;;20.90;9.48;;;;;;;26.67;28.71;101800.47;5105957;28;20054;-69
2022/06/16 14:12:58;;;;;;;26.75;11.80;;;;;;;26.70;28.42;101805.44;5107598;28;20047;-67
2022/06/16 14:21:42;;;;;;;15.25;6.60;;;;;;;26.82;28.69;101795.41;5085406;27;20369;-67
2022/06/16 14:24:24;;;;;;;11.00;4.05;;;;;;;27.02;28.76;101800.47;5064735;28;20037;-67
2022/06/16 14:26:51;;;;;;;16.15;7.05;;;;;;;27.17;29.05;101800.78;5072869;28;20048;-65
2022/06/16 14:29:24;;;;;;;41.70;19.98;;;;;;;27.23;28.53;101803.63;5081061;28;20060;-65
2022/06/16 14:32:07;;;;;;;64.53;35.25;;;;;;;27.49;28.57;101800.41;5074934;28;20055;-65
2022/06/16 14:34:41;;;;;;;20.77;7.97;;;;;;;27.66;28.22;101800.44;5069299;28;20052;-65
2022/06/16 14:37:22;;;;;;;31.25;15.27;;;;;;;27.20;28.54;101803.03;5070217;28;20041;-60
2022/06/16 14:39:54;;;;;;;34.35;14.15;;;;;;;27.33;29.16;101793.81;5065767;28;20091;-60
2022/06/16 14:42:27;;;;;;;19.48;8.25;;;;;;;27.30;29.26;101796.19;5067580;28;20049;-60
2022/06/16 14:44:58;;;;;;;18.30;5.72;;;;;;;27.38;29.52;101795.81;5069303;28;20041;-61
2022/06/16 14:47:39;;;;;;;126.40;31.83;;;;;;;27.45;29.02;101798.38;5067988;28;20045;-60
2022/06/16 14:50:12;;;;;;;52.50;12.88;;;;;;;27.53;28.45;101796.09;5067885;28;20041;-63
2022/06/16 14:52:45;;;;;;;49.33;12.18;;;;;;;27.96;28.25;101785.78;5049506;28;20045;-63
2022/06/16 14:55:16;;;;;;;256.63;59.55;;;;;;;28.10;28.26;101776.19;5073446;28;20051;-63
2022/06/16 14:57:48;;;;;;;79.93;20.25;;;;;;;28.21;27.60;101771.72;5052675;28;20044;-64
2022/06/16 15:00:27;;;;;;;108.22;28.45;;;;;;;28.08;29.04;101761.16;5048334;28;20036;-63
2022/06/16 15:03:01;;;;;;;142.80;37.13;;;;;;;28.14;27.90;101765.59;5063482;28;20140;-64
2022/06/16 15:05:29;;;;;;;35.78;10.07;;;;;;;28.45;28.65;101766.94;5070090;28;20040;-63
2022/06/16 15:07:56;;;;;;;24.50;7.68;;;;;;;28.48;26.86;101760.97;5089688;28;20044;-63
2022/06/16 15:10:27;;;;;;;34.08;10.43;;;;;;;28.59;27.78;101759.25;5079150;28;20158;-63
2022/06/16 15:12:53;;;;;;;45.80;14.38;;;;;;;28.81;27.14;101758.47;5085939;28;20041;-63
2022/06/16 15:15:24;;;;;;;33.80;9.57;;;;;;;29.04;26.89;101750.03;5084498;28;20046;-63
2022/06/16 15:18:25;;;;;;;27.38;7.43;;;;;;;28.63;27.00;101738.56;5068684;28;20049;-63
2022/06/16 15:20:52;;;;;;;19.67;6.47;;;;;;;28.53;26.97;101749.34;5049004;28;20052;-62
2022/06/16 15:23:24;;;;;;;15.60;5.05;;;;;;;28.30;26.82;101745.69;5067802;28;20044;-64
2022/06/16 15:25:52;;;;;;;;;;;;;;;28.33;27.67;101747.91;5069520;28;20052;-62
2022/06/16 15:28:22;;;;;;;10.95;3.70;;;;;;;28.61;26.79;101742.63;5082538;28;19928;-64
2022/06/16 15:30:53;;;;;;;13.70;3.92;;;;;;;28.87;26.58;101755.56;5064568;28;20391;-63
2022/06/16 15:36:18;;;;;;;11.90;4.15;;;;;;;28.88;26.65;101751.75;5051821;28;20037;-63
2022/06/16 15:38:48;;;;;;;8.70;3.40;;;;;;;28.54;25.68;101756.44;5053913;28;20060;-63
2022/06/16 15:41:37;;;;;;;17.25;5.50;;;;;;;28.48;26.04;101754.69;5051877;28;20029;-62
2022/06/16 15:44:24;;;;;;;13.90;4.20;;;;;;;28.08;26.59;101753.78;5043728;28;20471;-62
2022/06/16 15:46:55;;;;;;;13.93;3.95;;;;;;;27.95;26.82;101763.13;5070330;28;20052;-65
2022/06/16 15:49:31;;;;;;;11.27;3.40;;;;;;;27.90;27.16;101773.91;5038977;28;20083;-62
2022/06/16 15:52:02;;;;;;;11.35;3.95;;;;;;;27.80;26.91;101783.78;5051073;28;20044;-63
2022/06/16 15:54:38;;;;;;;24.05;11.45;;;;;;;28.15;27.25;101775.44;5054459;28;20155;-62
2022/06/16 15:57:08;;;;;;;9.88;4.30;;;;;;;27.92;26.82;101784.59;5053443;28;20049;-63
2022/06/16 15:59:58;;;;;;;10.60;3.50;;;;;;;28.02;27.25;101779.31;5020311;28;20048;-62
2022/06/16 16:02:26;;;;;;;11.32;3.42;;;;;;;28.05;26.64;101781.56;5042048;28;20131;-60
2022/06/16 16:04:58;;;;;;;10.23;3.40;;;;;;;28.05;26.96;101762.47;5069575;28;20045;-59
2022/06/16 16:07:27;;;;;;;13.82;3.97;;;;;;;28.05;27.50;101767.94;5050965;28;20060;-59
2022/06/16 16:09:56;;;;;;;8.32;3.38;;;;;;;28.06;28.24;101766.03;5057915;28;20067;-58
2022/06/16 16:12:28;;;;;;;7.90;3.50;;;;;;;27.61;27.62;101780.44;5051944;28;20106;-59
2022/06/16 16:15:09;;;;;;;10.63;3.47;;;;;;;27.48;28.01;101771.47;5068174;28;20059;-59
2022/06/16 16:23:07;;;;;;;12.20;3.60;;;;;;;26.94;29.00;101777.16;5138885;27;20356;-59
2022/06/16 16:25:41;;;;;;;8.70;3.60;;;;;;;26.89;28.53;101768.88;5127563;27;20108;-60
2022/06/16 16:28:32;;;;;;;12.48;3.30;;;;;;;26.98;28.82;101772.06;5112402;28;20055;-58
2022/06/16 16:31:16;;;;;;;10.27;3.53;;;;;;;26.76;29.27;101763.66;5124802;28;20042;-60
2022/06/16 16:33:44;;;;;;;14.95;4.90;;;;;;;26.72;29.40;101774.19;5126788;28;20134;-60
2022/06/16 16:36:28;;;;;;;17.08;4.30;;;;;;;27.03;29.58;101783.03;5119818;28;20059;-60
2022/06/16 16:39:26;;;;;;;13.48;4.45;;;;;;;27.01;28.40;101777.00;5123179;28;20516;-60
2022/06/16 16:45:21;;;;;;;71.15;28.33;;;;;;;26.87;28.91;101776.47;5129216;27;20585;-60
2022/06/16 16:48:03;;;;;;;27.73;10.65;;;;;;;26.51;28.10;101782.94;5120184;28;20142;-60
2022/06/16 16:50:33;;;;;;;59.75;26.35;;;;;;;26.56;29.32;101773.00;5109513;28;20043;-60
2022/06/16 16:53:11;;;;;;;100.63;40.30;;;;;;;26.41;29.92;101762.59;5118866;28;20082;-60
2022/06/16 16:55:40;;;;;;;31.85;14.55;;;;;;;26.15;30.00;101765.75;5128369;27;20043;-58
2022/06/16 16:58:07;;;;;;;24.80;9.82;;;;;;;25.86;30.44;101758.19;5125114;28;20047;-59
2022/06/16 17:00:38;;;;;;;52.00;24.42;;;;;;;25.64;30.82;101759.78;5109703;28;20131;-58
2022/06/16 17:03:07;;;;;;;32.00;13.70;;;;;;;25.50;30.82;101755.56;5125423;28;20043;-58
2022/06/16 17:05:34;;;;;;;14.75;5.40;;;;;;;25.35;30.94;101754.09;5139225;27;20040;-58
2022/06/16 17:08:01;;;;;;;11.93;3.85;;;;;;;25.20;32.03;101750.91;5095093;28;20506;-58
2022/06/16 17:10:28;;;;;;;13.60;4.85;;;;;;;25.15;31.59;101750.75;5066848;28;20047;-59
2022/06/16 17:12:57;;;;;;;17.70;6.35;;;;;;;24.96;32.27;101745.34;5091373;28;20446;-59
2022/06/16 17:15:25;;;;;;;15.15;4.32;;;;;;;24.94;32.01;101744.75;5125481;28;20050;-58
2022/06/16 17:17:52;;;;;;;11.30;3.33;;;;;;;24.81;32.32;101744.88;5087927;28;20056;-57
2022/06/16 17:20:21;;;;;;;10.15;3.40;;;;;;;24.57;32.39;101743.84;5121451;28;20108;-58
2022/06/16 17:22:48;;;;;;;16.58;5.43;;;;;;;24.56;32.28;101756.59;5122265;27;20097;-53
2022/06/16 17:25:18;;;;;;;11.10;3.13;;;;;;;24.49;31.24;101747.66;5122695;28;20114;-53
2022/06/16 17:27:46;;;;;;;9.15;3.60;;;;;;;24.42;32.12;101758.56;5124129;28;21261;-53
2022/06/16 17:30:15;;;;;;;10.32;3.55;;;;;;;24.36;32.22;101748.59;5127615;27;20050;-54
2022/06/16 17:32:43;;;;;;;13.85;4.53;;;;;;;24.25;32.46;101752.88;5122402;28;20039;-54
2022/06/16 17:35:20;;;;;;;19.33;6.32;;;;;;;24.27;32.89;101748.03;5114905;28;20419;-53
2022/06/16 17:37:47;;;;;;;8.90;3.30;;;;;;;24.11;32.60;101754.00;5114473;28;20048;-59
2022/06/16 17:40:19;;;;;;;9.13;3.65;;;;;;;24.10;32.90;101752.34;5106864;28;20042;-59
2022/06/16 17:42:46;;;;;;;9.93;3.25;;;;;;;24.09;33.59;101750.69;5110352;28;20545;-59
2022/06/16 17:45:15;;;;;;;11.05;3.33;;;;;;;24.06;32.75;101749.25;5097302;28;20071;-60
2022/06/16 17:47:43;;;;;;;12.35;3.70;;;;;;;24.07;33.82;101755.50;5090447;28;20152;-59
2022/06/16 17:50:11;;;;;;;13.43;4.07;;;;;;;23.97;33.49;101753.28;5111243;28;20133;-60
2022/06/16 18:01:06;;;;;;;11.45;3.08;;;;;;;23.72;33.60;101743.19;5111050;28;20127;-60
2022/06/16 18:03:33;;;;;;;10.30;3.70;;;;;;;23.70;33.32;101734.47;5113696;28;20040;-59
2022/06/16 18:06:02;;;;;;;11.93;3.58;;;;;;;23.69;33.62;101750.94;5114138;28;20505;-59
2022/06/16 18:08:33;;;;;;;12.75;3.47;;;;;;;23.63;33.81;101754.47;5112495;28;20101;-59
2022/06/16 18:11:02;;;;;;;11.43;3.35;;;;;;;23.54;33.84;101762.06;5080291;28;20566;-59
2022/06/16 18:13:32;;;;;;;8.98;3.47;;;;;;;23.55;35.10;101763.69;5076821;28;20048;-59
2022/06/16 18:15:59;;;;;;;20.08;3.35;;;;;;;23.53;34.53;101758.50;5108953;28;20047;-59
2022/06/16 18:18:26;;;;;;;10.90;3.30;;;;;;;23.55;34.34;101771.81;5111526;28;20063;-59
2022/06/16 18:20:54;;;;;;;7.53;3.03;;;;;;;23.45;34.74;101780.41;5114178;28;20135;-59
2022/06/16 18:23:23;;;;;;;9.40;3.25;;;;;;;23.39;34.81;101783.97;5096990;28;20058;-59
2022/06/16 18:25:53;;;;;;;12.70;3.40;;;;;;;23.33;35.54;101795.66;5097709;28;20047;-59
2022/06/16 18:28:22;;;;;;;11.80;3.60;;;;;;;23.32;35.35;101802.09;5097346;28;20054;-59
2022/06/16 18:30:50;;;;;;;11.45;3.70;;;;;;;23.33;35.88;101801.06;5097357;28;20098;-59
2022/06/16 18:33:21;;;;;;;9.27;3.17;;;;;;;23.43;35.93;101804.16;5113100;28;20396;-59
2022/06/16 18:35:49;;;;;;;9.95;3.50;;;;;;;23.43;35.74;101806.88;5115114;28;20051;-59
2022/06/16 18:38:18;;;;;;;14.18;3.58;;;;;;;23.32;35.28;101815.63;5051572;28;20043;-59
2022/06/16 18:40:48;;;;;;;12.73;4.10;;;;;;;23.40;36.19;101820.00;5080498;28;20562;-59
2022/06/16 18:43:19;;;;;;;8.30;3.70;;;;;;;23.41;37.04;101802.69;5079986;28;20044;-60
2022/06/16 18:45:49;;;;;;;13.68;4.07;;;;;;;23.49;36.51;101810.59;5053548;28;20443;-59
2022/06/16 18:48:17;;;;;;;12.48;3.75;;;;;;;23.34;36.51;101806.28;5101106;28;20138;-60
2022/06/16 18:50:45;;;;;;;10.90;3.60;;;;;;;23.46;35.89;101808.31;5114818;28;20048;-57
2022/06/16 18:53:19;;;;;;;8.32;3.70;;;;;;;23.28;36.16;101809.81;5114527;28;20205;-59
2022/06/16 18:55:46;;;;;;;12.63;3.60;;;;;;;23.11;35.44;101797.81;5096668;28;20043;-59
2022/06/16 18:58:13;;;;;;;9.98;3.30;;;;;;;23.09;35.73;101799.91;5113562;28;20055;-59
2022/06/16 19:00:46;;;;;;;12.88;3.70;;;;;;;23.09;35.24;101802.59;5114948;28;20044;-59
2022/06/16 19:03:20;;;;;;;9.52;3.50;;;;;;;23.06;36.03;101806.53;5114614;28;20036;-59
2022/06/16 19:05:48;;;;;;;10.82;3.38;;;;;;;23.01;36.61;101806.31;5113482;28;20047;-60
2022/06/16 19:08:17;;;;;;;12.73;3.72;;;;;;;22.86;35.97;101809.25;5113759;28;20054;-60
2022/06/16 19:10:45;;;;;;;10.90;3.95;;;;;;;22.79;36.08;101803.88;5113396;28;20092;-59
2022/06/16 19:13:13;;;;;;;13.50;3.90;;;;;;;22.75;36.34;101799.91;5063032;28;20138;-58
2022/06/16 19:15:44;;;;;;;10.77;3.50;;;;;;;22.68;36.05;101800.94;5086649;28;20108;-59
2022/06/16 19:18:16;;;;;;;11.60;3.70;;;;;;;22.68;36.92;101790.97;5113429;28;20130;-59
2022/06/16 19:20:48;;;;;;;9.30;3.25;;;;;;;22.60;36.24;101788.47;5112861;28;20039;-58
2022/06/16 19:23:21;;;;;;;14.48;4.13;;;;;;;22.61;38.28;101785.56;5079268;28;20040;-58
2022/06/16 19:25:48;;;;;;;13.98;4.10;;;;;;;22.52;37.61;101794.09;5096292;28;20070;-59
2022/06/16 19:28:15;;;;;;;11.15;3.70;;;;;;;22.52;38.62;101799.50;5113214;28;20122;-59
2022/06/16 19:30:42;;;;;;;10.02;3.92;;;;;;;22.41;37.72;101796.38;5091477;28;20444;-60
2022/06/16 19:33:13;;;;;;;16.48;4.80;;;;;;;22.52;37.76;101799.50;5085818;28;20130;-60
2022/06/16 19:35:41;;;;;;;13.88;4.80;;;;;;;22.49;37.22;101806.16;5097608;28;20055;-60
2022/06/16 19:38:15;;;;;;;8.45;3.97;;;;;;;22.40;38.43;101810.09;5096229;28;20047;-60
2022/06/16 19:40:42;;;;;;;10.68;3.78;;;;;;;22.36;38.11;101817.78;5112950;28;20043;-60
2022/06/16 19:50:47;;;;;;;12.88;5.80;;;;;;;22.29;38.95;101826.94;5112784;28;20046;-60
2022/06/16 19:51:31;;;;;;;14.55;4.45;;;;;;;22.10;39.36;101823.13;5113632;28;20568;-59
2022/06/16 19:54:00;;;;;;;9.95;4.22;;;;;;;22.10;38.73;101828.53;5113254;28;20067;-59
2022/06/16 19:56:27;;;;;;;13.50;3.83;;;;;;;21.97;39.28;101832.84;5095767;28;20044;-59
2022/06/16 19:58:53;;;;;;;13.65;4.00;;;;;;;21.97;39.70;101837.41;5112564;28;20127;-59
2022/06/16 20:01:21;;;;;;;13.35;4.20;;;;;;;22.04;40.24;101831.00;5083335;28;20443;-59
2022/06/16 20:03:48;;;;;;;16.58;4.80;;;;;;;21.92;39.72;101834.50;5090616;28;20074;-59
2022/06/16 20:06:15;;;;;;;15.50;5.60;;;;;;;21.90;39.96;101832.00;5093355;28;20048;-59
2022/06/16 20:08:42;;;;;;;11.98;4.32;;;;;;;21.84;39.75;101854.41;5093369;28;20047;-59
2022/06/16 20:11:09;;;;;;;14.15;4.55;;;;;;;21.80;40.80;101862.09;5091757;28;20040;-59
2022/06/16 20:13:36;;;;;;;11.27;4.40;;;;;;;21.72;41.05;101861.44;5074316;28;20040;-58
2022/06/16 20:16:04;;;;;;;13.30;4.43;;;;;;;21.65;41.33;101867.63;5093097;28;20105;-59
2022/06/16 20:18:32;;;;;;;13.60;5.30;;;;;;;21.49;41.52;101869.84;5043082;28;20073;-59
2022/06/16 20:21:04;;;;;;;14.68;7.10;;;;;;;21.57;41.62;101872.38;5083502;28;20056;-58
2022/06/16 20:23:36;;;;;;;13.02;5.80;;;;;;;21.55;42.11;101871.72;5086347;28;20040;-58
2022/06/16 20:26:06;;;;;;;13.18;5.07;;;;;;;21.47;42.38;101872.75;5091766;28;20048;-59
2022/06/16 20:28:34;;;;;;;11.40;4.93;;;;;;;21.43;42.03;101874.97;5095119;28;20044;-59
2022/06/16 20:31:02;;;;;;;12.82;4.60;;;;;;;21.38;42.29;101888.22;5094712;28;20047;-57
2022/06/16 20:33:31;;;;;;;13.20;4.38;;;;;;;21.32;41.48;101885.47;5113469;28;20044;-59
2022/06/16 20:35:58;;;;;;;11.40;4.47;;;;;;;21.31;42.34;101881.13;5096367;28;20503;-57
2022/06/16 20:38:25;;;;;;;11.10;4.40;;;;;;;21.22;43.06;101872.34;5112440;28;20047;-57
2022/06/16 20:40:55;;;;;;;11.30;4.20;;;;;;;21.19;42.75;101880.81;5094917;28;20048;-57